F/V Abraden — FGRQ — position and weather

sailwx.info

Track history (hours):
 
Tides and Currents Weather Stations Pressure Air Temp Water Temp Dewpoint Dewpoint Depression Visibility Wind Speed Wind Dir Waves Ship Positions

F/V Abraden

Last reported at 2018-Jun-20 12:25 UTC. Time now 2018-Jun-20 19:23 UTC.
Position N 47°18' W 003°57'.

Type: Fishing. MMSI: 228226000.

Date/timePositionNaut miles runAvg speedWind from/ knotsBaromVisibWave heightAir tempDewpointWater temp
2018-Jun-20 12:25N 47°18' W 003°57'3 1.8
2018-Jun-20 10:38N 47°17' W 004°01'1 3.2
2018-Jun-20 10:28N 47°16' W 004°01'0 0.7
2018-Jun-20 09:58N 47°16' W 004°01'2 3.3
2018-Jun-20 09:13N 47°18' W 004°01'1 3.1
2018-Jun-20 08:59N 47°19' W 004°00'2 3.0
2018-Jun-20 08:20N 47°20' W 003°58'1 3.0
2018-Jun-20 07:54N 47°21' W 003°57'2 3.1
2018-Jun-20 07:18N 47°23' W 003°57'1 3.0
2018-Jun-20 07:00N 47°24' W 003°57'2 3.1
2018-Jun-20 06:23N 47°26' W 003°56'2 3.2
2018-Jun-20 05:37N 47°28' W 003°56'0 3.0
2018-Jun-20 05:30N 47°29' W 003°56'4 6.7
2018-Jun-20 04:56N 47°32' W 003°56'3 6.7
2018-Jun-20 04:27N 47°35' W 003°55'17 6.1
2018-Jun-20 01:39N 47°52' W 003°55'0 0.0
2018-Jun-20 01:23N 47°52' W 003°55'31 4.5
2018-Jun-19 18:32N 47°21' W 003°57'0 3.2
2018-Jun-19 18:30N 47°21' W 003°57'2 3.3
2018-Jun-19 18:00N 47°20' W 003°58'7 2.8
2018-Jun-19 15:34N 47°13' W 003°59'1 3.1
2018-Jun-19 15:21N 47°13' W 003°58'1 3.2
2018-Jun-19 14:54N 47°13' W 003°56'1 3.3
2018-Jun-19 14:30N 47°13' W 003°54'1 1.5
2018-Jun-19 13:42N 47°14' W 003°52'1 2.7
2018-Jun-19 13:30N 47°14' W 003°53'8 1.3
2018-Jun-19 07:19N 47°11' W 004°04'4 2.9
2018-Jun-19 05:53N 47°11' W 003°58'2 2.9
2018-Jun-19 05:11N 47°13' W 003°56'1 1.9
2018-Jun-19 04:45N 47°13' W 003°55'5 3.1
2018-Jun-19 03:01N 47°08' W 003°58'0 2.4
2018-Jun-19 03:00N 47°08' W 003°58'7 0.8
2018-Jun-18 17:57N 47°13' W 003°51'4 0.5
2018-Jun-18 08:59N 47°10' W 003°56'1 2.9
2018-Jun-18 08:30N 47°11' W 003°58'2 3.2
2018-Jun-18 07:46N 47°12' W 004°01'1 3.2
2018-Jun-18 07:30N 47°13' W 004°01'4 2.8
2018-Jun-18 06:10N 47°16' W 003°57'1 2.7
2018-Jun-18 05:48N 47°16' W 003°56'1 2.7
2018-Jun-18 05:29N 47°17' W 003°55'2 2.7
2018-Jun-18 04:50N 47°18' W 003°53'1 2.7
2018-Jun-18 04:26N 47°19' W 003°52'1 3.2
2018-Jun-18 04:00N 47°20' W 003°52'5 6.8
2018-Jun-18 03:13N 47°25' W 003°52'2 7.1
2018-Jun-18 02:58N 47°27' W 003°52'3 6.9
2018-Jun-18 02:29N 47°31' W 003°53'4 6.9
2018-Jun-18 01:58N 47°34' W 003°53'  
2018-Jun-15 08:50N 47°20' W 003°42'2 3.1
2018-Jun-15 08:09N 47°22' W 003°43'1 3.0
2018-Jun-15 07:42N 47°23' W 003°45'1 2.9
2018-Jun-15 07:24N 47°23' W 003°46'12 0.5
2018-Jun-14 07:15N 47°11' W 003°46'2 3.0
2018-Jun-14 06:44N 47°13' W 003°45'3 3.2
2018-Jun-14 05:47N 47°15' W 003°43'1 3.1
2018-Jun-14 05:31N 47°16' W 003°42'2 3.1
2018-Jun-14 04:52N 47°18' W 003°41'1 3.2
2018-Jun-14 04:25N 47°19' W 003°41'2 3.5
2018-Jun-14 03:56N 47°21' W 003°42'1 2.0
2018-Jun-14 03:26N 47°21' W 003°43'2 3.3
2018-Jun-14 02:58N 47°23' W 003°44'3 3.3
2018-Jun-14 02:03N 47°24' W 003°48'3 3.3
2018-Jun-14 01:10N 47°26' W 003°51'1 3.3
2018-Jun-14 00:59N 47°27' W 003°51'1 3.0
2018-Jun-14 00:30N 47°28' W 003°52'2 3.0
2018-Jun-13 23:55N 47°30' W 003°51'1 2.9
2018-Jun-13 23:24N 47°30' W 003°49'3 2.2
2018-Jun-13 22:12N 47°27' W 003°51'2 2.0
2018-Jun-13 21:22N 47°28' W 003°49'2 2.2
2018-Jun-13 20:23N 47°30' W 003°50'2 3.0
2018-Jun-13 19:45N 47°31' W 003°52'5 0.4
2018-Jun-13 09:21N 47°31' W 003°59'1 3.3
2018-Jun-13 08:56N 47°31' W 003°57'1 1.3
2018-Jun-13 08:17N 47°32' W 003°57'17 2.6
2018-Jun-13 01:41N 47°49' W 003°56'3 7.0
2018-Jun-13 01:18N 47°52' W 003°55'23 4.5
2018-Jun-12 20:11N 47°29' W 003°50'8 0.5
2018-Jun-12 04:05N 47°36' W 003°58'9 1.3
2018-Jun-11 21:14N 47°30' W 003°49'2 2.3
2018-Jun-11 20:22N 47°30' W 003°52'1 0.6
2018-Jun-11 19:09N 47°30' W 003°53'  
Track history (hours):
 
Tides and Currents Weather Stations Pressure Air Temp Water Temp Dewpoint Dewpoint Depression Visibility Wind Speed Wind Dir Waves Ship Positions

F/V Abraden

Last reported at 2018-Jun-20 12:25 UTC. Time now 2018-Jun-20 19:23 UTC.
Position N 47°18' W 003°57'.

Type: Fishing. MMSI: 228226000.

Date/timePositionNaut miles runAvg speedWind from/ knotsBaromVisibWave heightAir tempDewpointWater temp
2018-Jun-20 12:25N 47°18' W 003°57'3 1.8
2018-Jun-20 10:38N 47°17' W 004°01'1 3.2
2018-Jun-20 10:28N 47°16' W 004°01'0 0.7
2018-Jun-20 09:58N 47°16' W 004°01'2 3.3
2018-Jun-20 09:13N 47°18' W 004°01'1 3.1
2018-Jun-20 08:59N 47°19' W 004°00'2 3.0
2018-Jun-20 08:20N 47°20' W 003°58'1 3.0
2018-Jun-20 07:54N 47°21' W 003°57'2 3.1
2018-Jun-20 07:18N 47°23' W 003°57'1 3.0
2018-Jun-20 07:00N 47°24' W 003°57'2 3.1
2018-Jun-20 06:23N 47°26' W 003°56'2 3.2
2018-Jun-20 05:37N 47°28' W 003°56'0 3.0
2018-Jun-20 05:30N 47°29' W 003°56'4 6.7
2018-Jun-20 04:56N 47°32' W 003°56'3 6.7
2018-Jun-20 04:27N 47°35' W 003°55'17 6.1
2018-Jun-20 01:39N 47°52' W 003°55'0 0.0
2018-Jun-20 01:23N 47°52' W 003°55'31 4.5
2018-Jun-19 18:32N 47°21' W 003°57'0 3.2
2018-Jun-19 18:30N 47°21' W 003°57'2 3.3
2018-Jun-19 18:00N 47°20' W 003°58'7 2.8
2018-Jun-19 15:34N 47°13' W 003°59'1 3.1
2018-Jun-19 15:21N 47°13' W 003°58'1 3.2
2018-Jun-19 14:54N 47°13' W 003°56'1 3.3
2018-Jun-19 14:30N 47°13' W 003°54'1 1.5
2018-Jun-19 13:42N 47°14' W 003°52'1 2.7
2018-Jun-19 13:30N 47°14' W 003°53'8 1.3
2018-Jun-19 07:19N 47°11' W 004°04'4 2.9
2018-Jun-19 05:53N 47°11' W 003°58'2 2.9
2018-Jun-19 05:11N 47°13' W 003°56'1 1.9
2018-Jun-19 04:45N 47°13' W 003°55'5 3.1
2018-Jun-19 03:01N 47°08' W 003°58'0 2.4
2018-Jun-19 03:00N 47°08' W 003°58'7 0.8
2018-Jun-18 17:57N 47°13' W 003°51'4 0.5
2018-Jun-18 08:59N 47°10' W 003°56'1 2.9
2018-Jun-18 08:30N 47°11' W 003°58'2 3.2
2018-Jun-18 07:46N 47°12' W 004°01'1 3.2
2018-Jun-18 07:30N 47°13' W 004°01'4 2.8
2018-Jun-18 06:10N 47°16' W 003°57'1 2.7
2018-Jun-18 05:48N 47°16' W 003°56'1 2.7
2018-Jun-18 05:29N 47°17' W 003°55'2 2.7
2018-Jun-18 04:50N 47°18' W 003°53'1 2.7
2018-Jun-18 04:26N 47°19' W 003°52'1 3.2
2018-Jun-18 04:00N 47°20' W 003°52'5 6.8
2018-Jun-18 03:13N 47°25' W 003°52'2 7.1
2018-Jun-18 02:58N 47°27' W 003°52'3 6.9
2018-Jun-18 02:29N 47°31' W 003°53'4 6.9
2018-Jun-18 01:58N 47°34' W 003°53'  
2018-Jun-15 08:50N 47°20' W 003°42'2 3.1
2018-Jun-15 08:09N 47°22' W 003°43'1 3.0
2018-Jun-15 07:42N 47°23' W 003°45'1 2.9
2018-Jun-15 07:24N 47°23' W 003°46'12 0.5
2018-Jun-14 07:15N 47°11' W 003°46'2 3.0
2018-Jun-14 06:44N 47°13' W 003°45'3 3.2
2018-Jun-14 05:47N 47°15' W 003°43'1 3.1
2018-Jun-14 05:31N 47°16' W 003°42'2 3.1
2018-Jun-14 04:52N 47°18' W 003°41'1 3.2
2018-Jun-14 04:25N 47°19' W 003°41'2 3.5
2018-Jun-14 03:56N 47°21' W 003°42'1 2.0
2018-Jun-14 03:26N 47°21' W 003°43'2 3.3
2018-Jun-14 02:58N 47°23' W 003°44'3 3.3
2018-Jun-14 02:03N 47°24' W 003°48'3 3.3
2018-Jun-14 01:10N 47°26' W 003°51'1 3.3
2018-Jun-14 00:59N 47°27' W 003°51'1 3.0
2018-Jun-14 00:30N 47°28' W 003°52'2 3.0
2018-Jun-13 23:55N 47°30' W 003°51'1 2.9
2018-Jun-13 23:24N 47°30' W 003°49'3 2.2
2018-Jun-13 22:12N 47°27' W 003°51'2 2.0
2018-Jun-13 21:22N 47°28' W 003°49'2 2.2
2018-Jun-13 20:23N 47°30' W 003°50'2 3.0
2018-Jun-13 19:45N 47°31' W 003°52'5 0.4
2018-Jun-13 09:21N 47°31' W 003°59'1 3.3
2018-Jun-13 08:56N 47°31' W 003°57'1 1.3
2018-Jun-13 08:17N 47°32' W 003°57'17 2.6
2018-Jun-13 01:41N 47°49' W 003°56'3 7.0
2018-Jun-13 01:18N 47°52' W 003°55'23 4.5
2018-Jun-12 20:11N 47°29' W 003°50'8 0.5
2018-Jun-12 04:05N 47°36' W 003°58'9 1.3
2018-Jun-11 21:14N 47°30' W 003°49'2 2.3
2018-Jun-11 20:22N 47°30' W 003°52'1 0.6
2018-Jun-11 19:09N 47°30' W 003°53'  

Dump ship's entire track history